Delta Pride — DSNG6 — position and weather

sailwx.info

Track history (hours):
 
Tides and Currents Weather Stations Pressure Air Temp Water Temp Dewpoint Dewpoint Depression Visibility Wind Speed Wind Dir Waves Ship Positions

Delta Pride

Last reported at 2015-Jul-04 22:29 UTC. Time now 2015-Jul-05 00:08 UTC.
Position N 48°30' W 128°17'.

Length 186 m; draft 11.3 m.

Type: Cargo ship. MMSI: 441339000.

Date/timePositionNaut miles runAvg speedWind from/ knotsBaromVisibWave heightAir tempDewpointWater temp
2015-Jul-04 22:29N 48°30' W 128°17'11 9.0
2015-Jul-04 21:18N 48°29' W 128°01'29 9.4
2015-Jul-04 18:15N 48°28' W 127°18'6 9.3
2015-Jul-04 17:33N 48°28' W 127°08'9 9.3
2015-Jul-04 16:33N 48°29' W 126°54'1010.4
2015-Jul-04 15:33N 48°30' W 126°38'1211.8
2015-Jul-04 14:33N 48°31' W 126°20'1212.0
2015-Jul-04 13:33N 48°31' W 126°02'1212.5
2015-Jul-04 12:33N 48°31' W 125°43'1212.2
2015-Jul-04 11:33N 48°31' W 125°25'1212.2
2015-Jul-04 10:33N 48°31' W 125°06'1110.8
2015-Jul-04 09:33N 48°31' W 124°50'1111.3
2015-Jul-04 08:33N 48°28' W 124°34'1211.8
2015-Jul-04 07:33N 48°23' W 124°17'1313.1
2015-Jul-04 06:33N 48°18' W 123°59'1413.6
2015-Jul-04 05:32N 48°16' W 123°39'1211.8
2015-Jul-04 04:33N 48°23' W 123°24'9 9.4
2015-Jul-04 03:33N 48°29' W 123°13'1110.7
2015-Jul-04 02:33N 48°39' W 123°15'9 8.8
2015-Jul-04 01:33N 48°45' W 123°05'8 7.8
2015-Jul-04 00:33N 48°53' W 123°02'9 9.4
2015-Jul-03 23:33N 49°01' W 123°09'0 0.2
2015-Jul-03 22:29N 49°01' W 123°09'0 0.0
2015-Jul-03 21:26N 49°01' W 123°09'0 0.0
2015-Jul-03 20:32N 49°01' W 123°09'0 0.0
2015-Jul-03 19:29N 49°01' W 123°09'0 0.0
2015-Jul-03 18:33N 49°01' W 123°09'0 0.0
2015-Jul-03 17:33N 49°01' W 123°09'0 0.0
2015-Jul-03 16:33N 49°01' W 123°09'0 0.0
2015-Jul-03 15:33N 49°01' W 123°09'0 0.0
2015-Jul-03 14:33N 49°01' W 123°09'0 0.0
2015-Jul-03 13:33N 49°01' W 123°09'0 0.0
2015-Jul-03 12:33N 49°01' W 123°09'0 0.0
2015-Jul-03 11:33N 49°01' W 123°09'0 0.0
2015-Jul-03 10:30N 49°01' W 123°09'0 0.0
2015-Jul-03 09:33N 49°01' W 123°09'0 0.0
2015-Jul-03 08:33N 49°01' W 123°09'0 0.0
2015-Jul-03 07:30N 49°01' W 123°09'0 0.0
2015-Jul-03 06:33N 49°01' W 123°09'0 0.0
2015-Jul-03 05:33N 49°01' W 123°09'0 0.0
2015-Jul-03 04:33N 49°01' W 123°09'0 0.0
2015-Jul-03 03:33N 49°01' W 123°09'0 0.0
2015-Jul-03 02:33N 49°01' W 123°09'0 0.0
2015-Jul-03 01:30N 49°01' W 123°09'0 0.0
2015-Jul-03 00:33N 49°01' W 123°09'0 0.0
2015-Jul-02 23:27N 49°01' W 123°09'0 0.0
2015-Jul-02 22:33N 49°01' W 123°09'0 0.0
2015-Jul-02 21:30N 49°01' W 123°09'0 0.0
2015-Jul-02 20:33N 49°01' W 123°09'0 0.0
2015-Jul-02 19:33N 49°01' W 123°09'0 0.0
2015-Jul-02 18:30N 49°01' W 123°09'0 0.0
2015-Jul-02 17:33N 49°01' W 123°09'0 0.0
2015-Jul-02 16:33N 49°01' W 123°09'0 0.0
2015-Jul-02 15:33N 49°01' W 123°09'0 0.0
2015-Jul-02 14:30N 49°01' W 123°09'0 0.0
2015-Jul-02 13:33N 49°01' W 123°09'0 0.0
2015-Jul-02 12:33N 49°01' W 123°09'0 0.0
2015-Jul-02 11:33N 49°01' W 123°09'0 0.0
2015-Jul-02 10:24N 49°01' W 123°09'0 0.0
2015-Jul-02 09:33N 49°01' W 123°09'1 1.3
2015-Jul-02 08:33N 48°60' W 123°09'5 5.4
2015-Jul-02 07:33N 48°55' W 123°05'1010.1
2015-Jul-02 06:33N 48°45' W 123°05'1110.6
2015-Jul-02 05:33N 48°36' W 123°13'1212.0
2015-Jul-02 04:34N 48°24' W 123°13'9 8.6
2015-Jul-02 03:33N 48°24' W 123°26'0 0.0
2015-Jul-02 02:31N 48°24' W 123°26'0 0.0
2015-Jul-02 01:31N 48°24' W 123°26'0 0.1
2015-Jul-02 00:28N 48°25' W 123°26'0 0.1
2015-Jul-01 23:31N 48°25' W 123°26'0 0.0
2015-Jul-01 22:31N 48°25' W 123°26'0 0.0
2015-Jul-01 21:31N 48°25' W 123°26'0 0.0
2015-Jul-01 20:31N 48°25' W 123°26'0 0.0
2015-Jul-01 19:28N 48°24' W 123°26'0 0.0
2015-Jul-01 18:31N 48°24' W 123°26'0 0.0
2015-Jul-01 17:31N 48°25' W 123°26'0 0.1
2015-Jul-01 16:31N 48°25' W 123°26'0 0.1
2015-Jul-01 15:31N 48°25' W 123°26'0 0.1
2015-Jul-01 14:31N 48°24' W 123°26'0 0.0
2015-Jul-01 13:31N 48°24' W 123°26'0 0.0
2015-Jul-01 12:31N 48°24' W 123°26'0 0.0
2015-Jul-01 11:31N 48°24' W 123°26'0 0.0
2015-Jul-01 10:31N 48°24' W 123°26'0 0.1
2015-Jul-01 09:31N 48°24' W 123°26'0 0.0
2015-Jul-01 08:31N 48°24' W 123°26'0 0.0
2015-Jul-01 07:28N 48°24' W 123°26'0 0.1
2015-Jul-01 06:31N 48°24' W 123°26'0 0.1
2015-Jul-01 05:31N 48°25' W 123°26'0 0.1
2015-Jul-01 04:31N 48°25' W 123°26'0 0.0
2015-Jul-01 03:31N 48°25' W 123°26'0 0.0
2015-Jul-01 02:31N 48°25' W 123°26'0 0.1
2015-Jul-01 01:31N 48°24' W 123°26'0 0.0
2015-Jul-01 00:31N 48°24' W 123°26'0 0.1
2015-Jun-30 23:32N 48°25' W 123°26'0 0.0
2015-Jun-30 22:32N 48°25' W 123°26'0 0.0
2015-Jun-30 21:32N 48°25' W 123°26'0 0.0
2015-Jun-30 20:32N 48°25' W 123°26'0 0.0
2015-Jun-30 19:32N 48°25' W 123°26'0 0.0
2015-Jun-30 18:32N 48°25' W 123°26'0 0.0
2015-Jun-30 17:32N 48°25' W 123°26'0 0.0
2015-Jun-30 16:32N 48°25' W 123°26'0 0.0
2015-Jun-30 15:32N 48°25' W 123°26'0 0.0
2015-Jun-30 14:32N 48°25' W 123°26'0 0.0
2015-Jun-30 13:32N 48°25' W 123°26'0 0.0
2015-Jun-30 12:32N 48°25' W 123°26'0 0.0
2015-Jun-30 11:32N 48°25' W 123°26'0 0.0
2015-Jun-30 10:32N 48°25' W 123°26'0 0.0
2015-Jun-30 09:32N 48°25' W 123°26'0 0.0
2015-Jun-30 08:32N 48°24' W 123°26'0 0.0
2015-Jun-30 07:32N 48°24' W 123°26'0 0.0
2015-Jun-30 06:32N 48°24' W 123°26'0 0.0
2015-Jun-30 05:32N 48°24' W 123°26'0 0.0
2015-Jun-30 04:32N 48°24' W 123°26'0 0.0
2015-Jun-30 03:32N 48°24' W 123°26'0 0.0
2015-Jun-30 02:32N 48°25' W 123°26'0 0.0
2015-Jun-30 01:32N 48°24' W 123°26'0 0.0
2015-Jun-30 00:32N 48°24' W 123°26'0 0.0
2015-Jun-29 23:32N 48°25' W 123°26'0 0.0
2015-Jun-29 22:32N 48°25' W 123°26'0 0.0
2015-Jun-29 21:32N 48°24' W 123°26'0 0.0
2015-Jun-29 20:32N 48°24' W 123°26'0 0.1
2015-Jun-29 19:32N 48°25' W 123°26'0 0.0
2015-Jun-29 18:32N 48°24' W 123°26'0 0.0
2015-Jun-29 17:32N 48°25' W 123°26'0 0.1
2015-Jun-29 16:32N 48°25' W 123°26'0 0.0
2015-Jun-29 15:32N 48°25' W 123°26'0 0.0
2015-Jun-29 14:32N 48°25' W 123°26'0 0.1
2015-Jun-29 13:32N 48°24' W 123°26'0 0.0
2015-Jun-29 12:29N 48°24' W 123°26'0 0.0
2015-Jun-29 11:32N 48°24' W 123°26'0 0.0
2015-Jun-29 10:32N 48°24' W 123°26'0 0.1
2015-Jun-29 09:32N 48°24' W 123°26'0 0.1
2015-Jun-29 08:23N 48°24' W 123°26'0 0.1
2015-Jun-29 07:32N 48°24' W 123°26'0 0.1
2015-Jun-29 06:32N 48°25' W 123°26'0 0.0
2015-Jun-29 05:32N 48°25' W 123°26'0 0.2
2015-Jun-29 04:32N 48°24' W 123°26'0 0.1
2015-Jun-29 03:32N 48°25' W 123°26'0 0.0
2015-Jun-29 02:32N 48°25' W 123°26'0 0.2
2015-Jun-29 01:29N 48°25' W 123°26'0 0.0
2015-Jun-29 00:32N 48°25' W 123°26'0 0.1
2015-Jun-28 23:32N 48°24' W 123°26'0 0.1
2015-Jun-28 22:29N 48°25' W 123°26'0 0.2
2015-Jun-28 21:32N 48°24' W 123°26'0 0.1
2015-Jun-28 20:32N 48°25' W 123°26'0 0.1
2015-Jun-28 19:32N 48°24' W 123°26'0 0.1
2015-Jun-28 18:32N 48°25' W 123°26'0 0.0
2015-Jun-28 17:32N 48°25' W 123°26'0 0.0
2015-Jun-28 16:32N 48°25' W 123°26'0 0.0
2015-Jun-28 15:32N 48°25' W 123°26'0 0.1
2015-Jun-28 14:32N 48°24' W 123°26'0 0.0
2015-Jun-28 13:32N 48°24' W 123°26'0 0.0
2015-Jun-28 12:32N 48°24' W 123°26'0 0.0
2015-Jun-28 11:32N 48°24' W 123°26'0 0.0
2015-Jun-28 10:32N 48°24' W 123°26'0 0.0
2015-Jun-28 09:32N 48°24' W 123°26'0 0.0
2015-Jun-28 08:32N 48°24' W 123°26'0 0.0
2015-Jun-28 07:32N 48°24' W 123°26'0 0.1
2015-Jun-28 06:32N 48°24' W 123°26'0 0.1
2015-Jun-28 05:32N 48°24' W 123°26'0 0.0
2015-Jun-28 04:32N 48°24' W 123°26'0 0.1
2015-Jun-28 03:32N 48°25' W 123°26'0 0.1
2015-Jun-28 02:32N 48°25' W 123°26'0 0.0
2015-Jun-28 01:32N 48°24' W 123°26'0 0.0
2015-Jun-28 00:32N 48°25' W 123°26'0 0.1
2015-Jun-27 23:32N 48°24' W 123°26'0 0.2
2015-Jun-27 22:32N 48°25' W 123°26'0 0.0
2015-Jun-27 21:32N 48°25' W 123°26'0 0.0
2015-Jun-27 20:32N 48°25' W 123°26'0 0.0
2015-Jun-27 19:32N 48°25' W 123°26'0 0.1
2015-Jun-27 18:29N 48°25' W 123°26'0 0.1
2015-Jun-27 17:32N 48°24' W 123°26'0 0.0
2015-Jun-27 16:29N 48°25' W 123°26'0 0.0
2015-Jun-27 15:32N 48°25' W 123°26'0 0.1
2015-Jun-27 14:32N 48°25' W 123°26'0 0.0
2015-Jun-27 13:32N 48°25' W 123°26'0 0.1
2015-Jun-27 12:32N 48°24' W 123°26'0 0.1
2015-Jun-27 11:32N 48°24' W 123°26'0 0.0
2015-Jun-27 10:32N 48°24' W 123°26'0 0.0
2015-Jun-27 09:32N 48°24' W 123°26'0 0.1
2015-Jun-27 08:32N 48°25' W 123°26'0 0.0
2015-Jun-27 07:29N 48°25' W 123°26'0 0.1
2015-Jun-27 06:32N 48°24' W 123°26'0 0.0
2015-Jun-27 05:29N 48°24' W 123°26'0 0.0
2015-Jun-27 04:32N 48°24' W 123°26'0 0.1
2015-Jun-27 03:29N 48°25' W 123°26'0 0.0
2015-Jun-27 02:32N 48°25' W 123°26'0 0.0
2015-Jun-27 01:32N 48°25' W 123°26'0 0.0
2015-Jun-27 00:32N 48°25' W 123°26'0 0.0
2015-Jun-26 23:26N 48°25' W 123°26'0 0.0
2015-Jun-26 22:32N 48°25' W 123°26'0 0.0
2015-Jun-26 21:29N 48°25' W 123°26'0 0.0
2015-Jun-26 20:32N 48°25' W 123°26'0 0.1
2015-Jun-26 19:32N 48°24' W 123°26'0 0.0
2015-Jun-26 18:26N 48°24' W 123°26'0 0.1
2015-Jun-26 17:29N 48°24' W 123°26'0 0.1
2015-Jun-26 16:32N 48°24' W 123°26'0 0.1
2015-Jun-26 15:32N 48°25' W 123°26'0 0.1
2015-Jun-26 14:32N 48°25' W 123°26'0 0.0
2015-Jun-26 13:32N 48°24' W 123°26'0 0.0
2015-Jun-26 12:32N 48°24' W 123°26'0 0.0
2015-Jun-26 11:32N 48°24' W 123°26'0 0.0
2015-Jun-26 10:32N 48°24' W 123°26'0 0.0
2015-Jun-26 09:32N 48°24' W 123°26'0 0.0
2015-Jun-26 08:32N 48°25' W 123°26'0 0.1
2015-Jun-26 07:32N 48°25' W 123°26'0 0.1
2015-Jun-26 06:26N 48°24' W 123°26'0 0.0
2015-Jun-26 05:32N 48°24' W 123°26'0 0.0
2015-Jun-26 04:32N 48°24' W 123°26'0 0.1
2015-Jun-26 03:32N 48°24' W 123°26'0 0.0
2015-Jun-26 02:32N 48°25' W 123°26'0 0.0
2015-Jun-26 01:32N 48°25' W 123°26'0 0.0
2015-Jun-26 00:32N 48°25' W 123°26'0 0.0
2015-Jun-25 23:29N 48°25' W 123°26'0 0.0
2015-Jun-25 22:32N 48°25' W 123°26'0 0.0
2015-Jun-25 21:32N 48°25' W 123°26'0 0.1
2015-Jun-25 20:32N 48°25' W 123°26'0 0.1
2015-Jun-25 19:32N 48°25' W 123°26'0 0.0
2015-Jun-25 18:32N 48°25' W 123°26'0 0.0
2015-Jun-25 17:32N 48°25' W 123°26'0 0.0
2015-Jun-25 16:29N 48°25' W 123°26'0 0.0
2015-Jun-25 15:32N 48°25' W 123°26'0 0.0
2015-Jun-25 14:32N 48°25' W 123°26'0 0.0
2015-Jun-25 13:32N 48°25' W 123°26'0 0.0
2015-Jun-25 12:32N 48°25' W 123°26'0 0.1
2015-Jun-25 11:32N 48°24' W 123°26'0 0.0
2015-Jun-25 10:32N 48°24' W 123°26'0 0.0
2015-Jun-25 09:26N 48°24' W 123°26'0 0.0
2015-Jun-25 08:32N 48°24' W 123°26'0 0.0
2015-Jun-25 07:32N 48°24' W 123°26'0 0.1
2015-Jun-25 06:32N 48°24' W 123°26'0 0.1
2015-Jun-25 05:32N 48°24' W 123°26'0 0.0
2015-Jun-25 04:32N 48°24' W 123°26'0 0.0
2015-Jun-25 03:32N 48°24' W 123°26'0 0.0
2015-Jun-25 02:29N 48°24' W 123°26'0 0.0
2015-Jun-25 01:23N 48°24' W 123°26'0 0.0
2015-Jun-25 00:32N 48°25' W 123°26'0 0.1
2015-Jun-24 23:32N 48°25' W 123°26'0 0.0
2015-Jun-24 22:32N 48°25' W 123°26'  
Track history (hours):
 
Tides and Currents Weather Stations Pressure Air Temp Water Temp Dewpoint Dewpoint Depression Visibility Wind Speed Wind Dir Waves Ship Positions

Delta Pride

Last reported at 2015-Jul-04 22:29 UTC. Time now 2015-Jul-05 00:08 UTC.
Position N 48°30' W 128°17'.

Length 186 m; draft 11.3 m.

Type: Cargo ship. MMSI: 441339000.

Date/timePositionNaut miles runAvg speedWind from/ knotsBaromVisibWave heightAir tempDewpointWater temp
2015-Jul-04 22:29N 48°30' W 128°17'11 9.0
2015-Jul-04 21:18N 48°29' W 128°01'29 9.4
2015-Jul-04 18:15N 48°28' W 127°18'6 9.3
2015-Jul-04 17:33N 48°28' W 127°08'9 9.3
2015-Jul-04 16:33N 48°29' W 126°54'1010.4
2015-Jul-04 15:33N 48°30' W 126°38'1211.8
2015-Jul-04 14:33N 48°31' W 126°20'1212.0
2015-Jul-04 13:33N 48°31' W 126°02'1212.5
2015-Jul-04 12:33N 48°31' W 125°43'1212.2
2015-Jul-04 11:33N 48°31' W 125°25'1212.2
2015-Jul-04 10:33N 48°31' W 125°06'1110.8
2015-Jul-04 09:33N 48°31' W 124°50'1111.3
2015-Jul-04 08:33N 48°28' W 124°34'1211.8
2015-Jul-04 07:33N 48°23' W 124°17'1313.1
2015-Jul-04 06:33N 48°18' W 123°59'1413.6
2015-Jul-04 05:32N 48°16' W 123°39'1211.8
2015-Jul-04 04:33N 48°23' W 123°24'9 9.4
2015-Jul-04 03:33N 48°29' W 123°13'1110.7
2015-Jul-04 02:33N 48°39' W 123°15'9 8.8
2015-Jul-04 01:33N 48°45' W 123°05'8 7.8
2015-Jul-04 00:33N 48°53' W 123°02'9 9.4
2015-Jul-03 23:33N 49°01' W 123°09'0 0.2
2015-Jul-03 22:29N 49°01' W 123°09'0 0.0
2015-Jul-03 21:26N 49°01' W 123°09'0 0.0
2015-Jul-03 20:32N 49°01' W 123°09'0 0.0
2015-Jul-03 19:29N 49°01' W 123°09'0 0.0
2015-Jul-03 18:33N 49°01' W 123°09'0 0.0
2015-Jul-03 17:33N 49°01' W 123°09'0 0.0
2015-Jul-03 16:33N 49°01' W 123°09'0 0.0
2015-Jul-03 15:33N 49°01' W 123°09'0 0.0
2015-Jul-03 14:33N 49°01' W 123°09'0 0.0
2015-Jul-03 13:33N 49°01' W 123°09'0 0.0
2015-Jul-03 12:33N 49°01' W 123°09'0 0.0
2015-Jul-03 11:33N 49°01' W 123°09'0 0.0
2015-Jul-03 10:30N 49°01' W 123°09'0 0.0
2015-Jul-03 09:33N 49°01' W 123°09'0 0.0
2015-Jul-03 08:33N 49°01' W 123°09'0 0.0
2015-Jul-03 07:30N 49°01' W 123°09'0 0.0
2015-Jul-03 06:33N 49°01' W 123°09'0 0.0
2015-Jul-03 05:33N 49°01' W 123°09'0 0.0
2015-Jul-03 04:33N 49°01' W 123°09'0 0.0
2015-Jul-03 03:33N 49°01' W 123°09'0 0.0
2015-Jul-03 02:33N 49°01' W 123°09'0 0.0
2015-Jul-03 01:30N 49°01' W 123°09'0 0.0
2015-Jul-03 00:33N 49°01' W 123°09'0 0.0
2015-Jul-02 23:27N 49°01' W 123°09'0 0.0
2015-Jul-02 22:33N 49°01' W 123°09'0 0.0
2015-Jul-02 21:30N 49°01' W 123°09'0 0.0
2015-Jul-02 20:33N 49°01' W 123°09'0 0.0
2015-Jul-02 19:33N 49°01' W 123°09'0 0.0
2015-Jul-02 18:30N 49°01' W 123°09'0 0.0
2015-Jul-02 17:33N 49°01' W 123°09'0 0.0
2015-Jul-02 16:33N 49°01' W 123°09'0 0.0
2015-Jul-02 15:33N 49°01' W 123°09'0 0.0
2015-Jul-02 14:30N 49°01' W 123°09'0 0.0
2015-Jul-02 13:33N 49°01' W 123°09'0 0.0
2015-Jul-02 12:33N 49°01' W 123°09'0 0.0
2015-Jul-02 11:33N 49°01' W 123°09'0 0.0
2015-Jul-02 10:24N 49°01' W 123°09'0 0.0
2015-Jul-02 09:33N 49°01' W 123°09'1 1.3
2015-Jul-02 08:33N 48°60' W 123°09'5 5.4
2015-Jul-02 07:33N 48°55' W 123°05'1010.1
2015-Jul-02 06:33N 48°45' W 123°05'1110.6
2015-Jul-02 05:33N 48°36' W 123°13'1212.0
2015-Jul-02 04:34N 48°24' W 123°13'9 8.6
2015-Jul-02 03:33N 48°24' W 123°26'0 0.0
2015-Jul-02 02:31N 48°24' W 123°26'0 0.0
2015-Jul-02 01:31N 48°24' W 123°26'0 0.1
2015-Jul-02 00:28N 48°25' W 123°26'0 0.1
2015-Jul-01 23:31N 48°25' W 123°26'0 0.0
2015-Jul-01 22:31N 48°25' W 123°26'0 0.0
2015-Jul-01 21:31N 48°25' W 123°26'0 0.0
2015-Jul-01 20:31N 48°25' W 123°26'0 0.0
2015-Jul-01 19:28N 48°24' W 123°26'0 0.0
2015-Jul-01 18:31N 48°24' W 123°26'0 0.0
2015-Jul-01 17:31N 48°25' W 123°26'0 0.1
2015-Jul-01 16:31N 48°25' W 123°26'0 0.1
2015-Jul-01 15:31N 48°25' W 123°26'0 0.1
2015-Jul-01 14:31N 48°24' W 123°26'0 0.0
2015-Jul-01 13:31N 48°24' W 123°26'0 0.0
2015-Jul-01 12:31N 48°24' W 123°26'0 0.0
2015-Jul-01 11:31N 48°24' W 123°26'0 0.0
2015-Jul-01 10:31N 48°24' W 123°26'0 0.1
2015-Jul-01 09:31N 48°24' W 123°26'0 0.0
2015-Jul-01 08:31N 48°24' W 123°26'0 0.0
2015-Jul-01 07:28N 48°24' W 123°26'0 0.1
2015-Jul-01 06:31N 48°24' W 123°26'0 0.1
2015-Jul-01 05:31N 48°25' W 123°26'0 0.1
2015-Jul-01 04:31N 48°25' W 123°26'0 0.0
2015-Jul-01 03:31N 48°25' W 123°26'0 0.0
2015-Jul-01 02:31N 48°25' W 123°26'0 0.1
2015-Jul-01 01:31N 48°24' W 123°26'0 0.0
2015-Jul-01 00:31N 48°24' W 123°26'0 0.1
2015-Jun-30 23:32N 48°25' W 123°26'0 0.0
2015-Jun-30 22:32N 48°25' W 123°26'0 0.0
2015-Jun-30 21:32N 48°25' W 123°26'0 0.0
2015-Jun-30 20:32N 48°25' W 123°26'0 0.0
2015-Jun-30 19:32N 48°25' W 123°26'0 0.0
2015-Jun-30 18:32N 48°25' W 123°26'0 0.0
2015-Jun-30 17:32N 48°25' W 123°26'0 0.0
2015-Jun-30 16:32N 48°25' W 123°26'0 0.0
2015-Jun-30 15:32N 48°25' W 123°26'0 0.0
2015-Jun-30 14:32N 48°25' W 123°26'0 0.0
2015-Jun-30 13:32N 48°25' W 123°26'0 0.0
2015-Jun-30 12:32N 48°25' W 123°26'0 0.0
2015-Jun-30 11:32N 48°25' W 123°26'0 0.0
2015-Jun-30 10:32N 48°25' W 123°26'0 0.0
2015-Jun-30 09:32N 48°25' W 123°26'0 0.0
2015-Jun-30 08:32N 48°24' W 123°26'0 0.0
2015-Jun-30 07:32N 48°24' W 123°26'0 0.0
2015-Jun-30 06:32N 48°24' W 123°26'0 0.0
2015-Jun-30 05:32N 48°24' W 123°26'0 0.0
2015-Jun-30 04:32N 48°24' W 123°26'0 0.0
2015-Jun-30 03:32N 48°24' W 123°26'0 0.0
2015-Jun-30 02:32N 48°25' W 123°26'0 0.0
2015-Jun-30 01:32N 48°24' W 123°26'0 0.0
2015-Jun-30 00:32N 48°24' W 123°26'0 0.0
2015-Jun-29 23:32N 48°25' W 123°26'0 0.0
2015-Jun-29 22:32N 48°25' W 123°26'0 0.0
2015-Jun-29 21:32N 48°24' W 123°26'0 0.0
2015-Jun-29 20:32N 48°24' W 123°26'0 0.1
2015-Jun-29 19:32N 48°25' W 123°26'0 0.0
2015-Jun-29 18:32N 48°24' W 123°26'0 0.0
2015-Jun-29 17:32N 48°25' W 123°26'0 0.1
2015-Jun-29 16:32N 48°25' W 123°26'0 0.0
2015-Jun-29 15:32N 48°25' W 123°26'0 0.0
2015-Jun-29 14:32N 48°25' W 123°26'0 0.1
2015-Jun-29 13:32N 48°24' W 123°26'0 0.0
2015-Jun-29 12:29N 48°24' W 123°26'0 0.0
2015-Jun-29 11:32N 48°24' W 123°26'0 0.0
2015-Jun-29 10:32N 48°24' W 123°26'0 0.1
2015-Jun-29 09:32N 48°24' W 123°26'0 0.1
2015-Jun-29 08:23N 48°24' W 123°26'0 0.1
2015-Jun-29 07:32N 48°24' W 123°26'0 0.1
2015-Jun-29 06:32N 48°25' W 123°26'0 0.0
2015-Jun-29 05:32N 48°25' W 123°26'0 0.2
2015-Jun-29 04:32N 48°24' W 123°26'0 0.1
2015-Jun-29 03:32N 48°25' W 123°26'0 0.0
2015-Jun-29 02:32N 48°25' W 123°26'0 0.2
2015-Jun-29 01:29N 48°25' W 123°26'0 0.0
2015-Jun-29 00:32N 48°25' W 123°26'0 0.1
2015-Jun-28 23:32N 48°24' W 123°26'0 0.1
2015-Jun-28 22:29N 48°25' W 123°26'0 0.2
2015-Jun-28 21:32N 48°24' W 123°26'0 0.1
2015-Jun-28 20:32N 48°25' W 123°26'0 0.1
2015-Jun-28 19:32N 48°24' W 123°26'0 0.1
2015-Jun-28 18:32N 48°25' W 123°26'0 0.0
2015-Jun-28 17:32N 48°25' W 123°26'0 0.0
2015-Jun-28 16:32N 48°25' W 123°26'0 0.0
2015-Jun-28 15:32N 48°25' W 123°26'0 0.1
2015-Jun-28 14:32N 48°24' W 123°26'0 0.0
2015-Jun-28 13:32N 48°24' W 123°26'0 0.0
2015-Jun-28 12:32N 48°24' W 123°26'0 0.0
2015-Jun-28 11:32N 48°24' W 123°26'0 0.0
2015-Jun-28 10:32N 48°24' W 123°26'0 0.0
2015-Jun-28 09:32N 48°24' W 123°26'0 0.0
2015-Jun-28 08:32N 48°24' W 123°26'0 0.0
2015-Jun-28 07:32N 48°24' W 123°26'0 0.1
2015-Jun-28 06:32N 48°24' W 123°26'0 0.1
2015-Jun-28 05:32N 48°24' W 123°26'0 0.0
2015-Jun-28 04:32N 48°24' W 123°26'0 0.1
2015-Jun-28 03:32N 48°25' W 123°26'0 0.1
2015-Jun-28 02:32N 48°25' W 123°26'0 0.0
2015-Jun-28 01:32N 48°24' W 123°26'0 0.0
2015-Jun-28 00:32N 48°25' W 123°26'0 0.1
2015-Jun-27 23:32N 48°24' W 123°26'0 0.2
2015-Jun-27 22:32N 48°25' W 123°26'0 0.0
2015-Jun-27 21:32N 48°25' W 123°26'0 0.0
2015-Jun-27 20:32N 48°25' W 123°26'0 0.0
2015-Jun-27 19:32N 48°25' W 123°26'0 0.1
2015-Jun-27 18:29N 48°25' W 123°26'0 0.1
2015-Jun-27 17:32N 48°24' W 123°26'0 0.0
2015-Jun-27 16:29N 48°25' W 123°26'0 0.0
2015-Jun-27 15:32N 48°25' W 123°26'0 0.1
2015-Jun-27 14:32N 48°25' W 123°26'0 0.0
2015-Jun-27 13:32N 48°25' W 123°26'0 0.1
2015-Jun-27 12:32N 48°24' W 123°26'0 0.1
2015-Jun-27 11:32N 48°24' W 123°26'0 0.0
2015-Jun-27 10:32N 48°24' W 123°26'0 0.0
2015-Jun-27 09:32N 48°24' W 123°26'0 0.1
2015-Jun-27 08:32N 48°25' W 123°26'0 0.0
2015-Jun-27 07:29N 48°25' W 123°26'0 0.1
2015-Jun-27 06:32N 48°24' W 123°26'0 0.0
2015-Jun-27 05:29N 48°24' W 123°26'0 0.0
2015-Jun-27 04:32N 48°24' W 123°26'0 0.1
2015-Jun-27 03:29N 48°25' W 123°26'0 0.0
2015-Jun-27 02:32N 48°25' W 123°26'0 0.0
2015-Jun-27 01:32N 48°25' W 123°26'0 0.0
2015-Jun-27 00:32N 48°25' W 123°26'0 0.0
2015-Jun-26 23:26N 48°25' W 123°26'0 0.0
2015-Jun-26 22:32N 48°25' W 123°26'0 0.0
2015-Jun-26 21:29N 48°25' W 123°26'0 0.0
2015-Jun-26 20:32N 48°25' W 123°26'0 0.1
2015-Jun-26 19:32N 48°24' W 123°26'0 0.0
2015-Jun-26 18:26N 48°24' W 123°26'0 0.1
2015-Jun-26 17:29N 48°24' W 123°26'0 0.1
2015-Jun-26 16:32N 48°24' W 123°26'0 0.1
2015-Jun-26 15:32N 48°25' W 123°26'0 0.1
2015-Jun-26 14:32N 48°25' W 123°26'0 0.0
2015-Jun-26 13:32N 48°24' W 123°26'0 0.0
2015-Jun-26 12:32N 48°24' W 123°26'0 0.0
2015-Jun-26 11:32N 48°24' W 123°26'0 0.0
2015-Jun-26 10:32N 48°24' W 123°26'0 0.0
2015-Jun-26 09:32N 48°24' W 123°26'0 0.0
2015-Jun-26 08:32N 48°25' W 123°26'0 0.1
2015-Jun-26 07:32N 48°25' W 123°26'0 0.1
2015-Jun-26 06:26N 48°24' W 123°26'0 0.0
2015-Jun-26 05:32N 48°24' W 123°26'0 0.0
2015-Jun-26 04:32N 48°24' W 123°26'0 0.1
2015-Jun-26 03:32N 48°24' W 123°26'0 0.0
2015-Jun-26 02:32N 48°25' W 123°26'0 0.0
2015-Jun-26 01:32N 48°25' W 123°26'0 0.0
2015-Jun-26 00:32N 48°25' W 123°26'0 0.0
2015-Jun-25 23:29N 48°25' W 123°26'0 0.0
2015-Jun-25 22:32N 48°25' W 123°26'0 0.0
2015-Jun-25 21:32N 48°25' W 123°26'0 0.1
2015-Jun-25 20:32N 48°25' W 123°26'0 0.1
2015-Jun-25 19:32N 48°25' W 123°26'0 0.0
2015-Jun-25 18:32N 48°25' W 123°26'0 0.0
2015-Jun-25 17:32N 48°25' W 123°26'0 0.0
2015-Jun-25 16:29N 48°25' W 123°26'0 0.0
2015-Jun-25 15:32N 48°25' W 123°26'0 0.0
2015-Jun-25 14:32N 48°25' W 123°26'0 0.0
2015-Jun-25 13:32N 48°25' W 123°26'0 0.0
2015-Jun-25 12:32N 48°25' W 123°26'0 0.1
2015-Jun-25 11:32N 48°24' W 123°26'0 0.0
2015-Jun-25 10:32N 48°24' W 123°26'0 0.0
2015-Jun-25 09:26N 48°24' W 123°26'0 0.0
2015-Jun-25 08:32N 48°24' W 123°26'0 0.0
2015-Jun-25 07:32N 48°24' W 123°26'0 0.1
2015-Jun-25 06:32N 48°24' W 123°26'0 0.1
2015-Jun-25 05:32N 48°24' W 123°26'0 0.0
2015-Jun-25 04:32N 48°24' W 123°26'0 0.0
2015-Jun-25 03:32N 48°24' W 123°26'0 0.0
2015-Jun-25 02:29N 48°24' W 123°26'0 0.0
2015-Jun-25 01:23N 48°24' W 123°26'0 0.0
2015-Jun-25 00:32N 48°25' W 123°26'0 0.1
2015-Jun-24 23:32N 48°25' W 123°26'0 0.0
2015-Jun-24 22:32N 48°25' W 123°26'  

Dump ship's entire track history